Time;durP1;ratioP1;P1;durP2;ratioP2;P2;SDS_P1;SDS_P2;PMS_P1;PMS_P2;Temp;Humidity;BMP_temperature;BMP_pressure;BME280_temperature;BME280_humidity;BME280_pressure;Samples;Min_cycle;Max_cycle;Signal;HPM_P1;HPM_P2
2023/12/23 00:00:32;;;;;;;11.57;1.95;;;8.30;99.90;;;;;;21010486;28;20048;-41
2023/12/23 00:10:33;;;;;;;12.27;2.17;;;8.20;99.90;;;;;;20997151;28;20040;-40
2023/12/23 00:20:33;;;;;;;12.35;1.70;;;8.10;99.90;;;;;;21010228;28;20044;-40
2023/12/23 00:30:34;;;;;;;10.57;1.13;;;8.20;99.90;;;;;;21013700;28;20527;-41
2023/12/23 00:40:35;;;;;;;9.35;1.00;;;8.10;99.90;;;;;;21008154;28;20450;-41
2023/12/23 00:50:36;;;;;;;6.72;1.08;;;8.10;99.90;;;;;;21006546;28;20443;-40
2023/12/23 01:00:38;;;;;;;12.50;1.40;;;8.10;99.90;;;;;;21009095;28;20102;-40
2023/12/23 01:10:38;;;;;;;9.77;2.45;;;8.20;99.90;;;;;;21005874;28;20044;-41
2023/12/23 01:20:42;;;;;;;5.55;1.35;;;7.90;99.90;;;;;;21005030;28;20040;-41
2023/12/23 01:30:42;;;;;;;6.85;1.20;;;7.90;99.90;;;;;;21005299;28;20488;-41
2023/12/23 01:40:43;;;;;;;9.77;1.17;;;7.90;99.90;;;;;;21003316;28;20573;-41
2023/12/23 01:50:43;;;;;;;6.57;1.00;;;7.90;99.90;;;;;;21011208;28;20450;-41
2023/12/23 02:00:44;;;;;;;9.30;1.35;;;8.10;99.90;;;;;;21020644;28;20125;-41
2023/12/23 02:10:49;;;;;;;7.13;2.20;;;8.00;99.90;;;;;;21019688;28;20045;-41
2023/12/23 02:20:50;;;;;;;7.60;1.80;;;8.30;99.90;;;;;;21023320;28;20105;-41
2023/12/23 02:30:52;;;;;;;7.90;1.83;;;8.30;99.90;;;;;;21024364;28;20171;-41
2023/12/23 02:40:52;;;;;;;9.93;2.00;;;8.40;99.90;;;;;;21019389;28;20063;-41
2023/12/23 02:50:53;;;;;;;11.80;2.42;;;8.80;99.90;;;;;;21018929;28;20040;-41
2023/12/23 03:00:53;;;;;;;18.38;2.10;;;9.00;99.90;;;;;;21017552;28;20499;-41
2023/12/23 03:10:54;;;;;;;11.77;1.70;;;9.10;99.90;;;;;;21018649;28;20085;-41
2023/12/23 03:20:55;;;;;;;10.32;1.98;;;9.30;99.90;;;;;;21016171;28;20472;-41
2023/12/23 03:30:55;;;;;;;13.18;1.95;;;9.30;99.90;;;;;;21012704;28;20437;-41
2023/12/23 03:40:56;;;;;;;9.02;2.40;;;9.40;99.90;;;;;;21018570;28;20480;-41
2023/12/23 03:50:56;;;;;;;13.73;1.83;;;9.60;99.90;;;;;;21019369;28;20520;-41
2023/12/23 04:00:57;;;;;;;15.25;1.70;;;9.60;99.90;;;;;;21013633;28;20167;-39
2023/12/23 04:10:59;;;;;;;11.63;2.00;;;9.70;99.90;;;;;;21011740;28;20054;-43
2023/12/23 04:20:59;;;;;;;9.48;1.67;;;9.70;99.90;;;;;;21013917;28;20044;-41
2023/12/23 04:31:00;;;;;;;10.32;1.75;;;9.70;99.90;;;;;;21013170;28;20492;-40
2023/12/23 04:41:10;;;;;;;10.55;2.05;;;9.80;98.80;;;;;;21007957;28;20123;-40
2023/12/23 04:51:11;;;;;;;11.18;1.70;;;9.90;88.90;;;;;;21006919;28;20048;-40
2023/12/23 05:01:12;;;;;;;12.65;1.70;;;9.80;86.40;;;;;;21005323;28;20063;-40
2023/12/23 05:11:13;;;;;;;10.95;1.85;;;9.90;80.10;;;;;;21003443;28;20079;-40
2023/12/23 05:21:13;;;;;;;12.02;1.52;;;10.00;70.50;;;;;;21006048;28;20037;-40
2023/12/23 05:31:14;;;;;;;13.60;2.72;;;10.10;64.40;;;;;;21018767;28;20043;-41
2023/12/23 05:41:14;;;;;;;10.50;2.07;;;10.10;55.20;;;;;;20979013;28;1099351;-41
2023/12/23 05:51:15;;;;;;;10.77;2.00;;;10.10;60.40;;;;;;21018869;28;20564;-41
2023/12/23 06:01:16;;;;;;;16.30;2.17;;;10.00;68.60;;;;;;21023108;28;20189;-41
2023/12/23 06:11:16;;;;;;;9.93;2.58;;;10.00;74.60;;;;;;21022514;28;20071;-41
2023/12/23 06:21:17;;;;;;;15.50;1.92;;;10.00;84.80;;;;;;21018068;28;20036;-41
2023/12/23 06:31:17;;;;;;;14.60;2.78;;;10.00;90.90;;;;;;21018061;28;20051;-41
2023/12/23 06:41:18;;;;;;;12.70;2.15;;;10.00;85.30;;;;;;21020944;28;20420;-40
2023/12/23 06:51:19;;;;;;;12.02;1.85;;;10.00;85.90;;;;;;21019322;28;20065;-40
2023/12/23 07:01:20;;;;;;;12.82;2.22;;;10.10;71.90;;;;;;21014183;28;20033;-40
2023/12/23 07:11:21;;;;;;;16.05;2.30;;;10.20;62.20;;;;;;21018724;28;20048;-40
2023/12/23 07:21:21;;;;;;;10.60;2.30;;;10.30;54.10;;;;;;21014652;28;20043;-40
2023/12/23 07:31:22;;;;;;;15.93;2.08;;;10.30;46.80;;;;;;21011289;28;20047;-40
2023/12/23 07:41:22;;;;;;;10.70;1.93;;;10.30;46.80;;;;;;21016496;28;20049;-40
2023/12/23 07:51:23;;;;;;;14.95;2.25;;;10.40;35.00;;;;;;21009564;28;20442;-40
2023/12/23 08:01:24;;;;;;;12.35;1.90;;;10.40;30.00;;;;;;21012831;28;20071;-40
2023/12/23 08:11:24;;;;;;;16.70;2.25;;;10.50;23.90;;;;;;21013401;28;20048;-40
2023/12/23 08:21:25;;;;;;;14.05;1.90;;;10.50;20.70;;;;;;21010619;28;20051;-40
2023/12/23 08:31:26;;;;;;;12.60;1.70;;;10.60;21.00;;;;;;21007795;28;20192;-40
2023/12/23 08:41:27;;;;;;;17.65;2.10;;;10.60;21.50;;;;;;21008438;28;20554;-40
2023/12/23 08:51:31;;;;;;;11.13;1.57;;;10.60;19.20;;;;;;21011686;28;20036;-40
2023/12/23 09:01:32;;;;;;;11.25;1.35;;;10.70;22.10;;;;;;21012134;28;20442;-40
2023/12/23 09:11:32;;;;;;;8.15;1.38;;;10.70;22.30;;;;;;21005558;28;20051;-40
2023/12/23 09:21:34;;;;;;;13.43;1.53;;;10.70;27.00;;;;;;21005648;28;20109;-39
2023/12/23 09:31:34;;;;;;;15.82;2.33;;;10.60;23.40;;;;;;21004717;28;20071;-40
2023/12/23 09:41:35;;;;;;;11.70;1.95;;;10.70;20.80;;;;;;21002000;28;20053;-40
2023/12/23 09:51:36;;;;;;;15.50;2.58;;;10.70;22.00;;;;;;21003002;28;20040;-40
2023/12/23 10:01:36;;;;;;;14.63;2.40;;;10.70;17.60;;;;;;21000661;28;20062;-40
2023/12/23 10:11:37;;;;;;;10.05;1.50;;;10.80;15.60;;;;;;21014806;28;20036;-40
2023/12/23 10:21:41;;;;;;;9.47;1.57;;;10.90;12.20;;;;;;21019537;28;20039;-40
2023/12/23 10:31:43;;;;;;;14.27;1.85;;;10.90;8.50;;;;;;21015521;28;20044;-40
2023/12/23 10:41:54;;;;;;;11.40;1.35;;;11.10;4.50;;;;;;21015307;28;20093;-40
2023/12/23 10:51:55;;;;;;;7.57;1.40;;;11.10;1.20;;;;;;21017233;28;20083;-40
2023/12/23 11:01:57;;;;;;;11.23;1.50;;;11.20;1.00;;;;;;21014045;28;20060;-40
2023/12/23 11:11:58;;;;;;;8.52;1.50;;;11.20;1.00;;;;;;21011856;28;20135;-40
2023/12/23 11:22:24;;;;;;;8.00;1.10;;;11.30;1.00;;;;;;21012089;28;20044;-40
2023/12/23 11:32:25;;;;;;;7.50;1.30;;;11.40;1.00;;;;;;21010950;28;20081;-40
2023/12/23 11:42:26;;;;;;;8.10;1.30;;;11.50;1.00;;;;;;21006796;28;20116;-40
2023/12/23 11:52:28;;;;;;;10.53;1.50;;;11.50;1.00;;;;;;21010545;28;20050;-40
2023/12/23 12:02:28;;;;;;;6.60;1.63;;;11.50;1.00;;;;;;21012976;28;20506;-40
2023/12/23 12:12:29;;;;;;;10.02;1.48;;;11.50;1.00;;;;;;21009281;28;20040;-40
2023/12/23 12:22:30;;;;;;;5.47;1.10;;;11.50;1.00;;;;;;21005672;28;20047;-40
2023/12/23 12:32:32;;;;;;;9.48;1.10;;;11.50;1.00;;;;;;20996651;28;20466;-40
2023/12/23 12:42:35;;;;;;;7.40;1.30;;;11.40;1.00;;;;;;21004348;28;20826;-40
2023/12/23 12:52:36;;;;;;;5.68;0.77;;;11.40;1.00;;;;;;21006523;28;20056;-40
2023/12/23 13:02:36;;;;;;;8.38;1.73;;;11.30;1.00;;;;;;21005934;28;20032;-39
2023/12/23 13:12:38;;;;;;;9.23;1.17;;;11.40;1.00;;;;;;21002559;28;20056;-39
2023/12/23 13:22:39;;;;;;;6.53;1.13;;;11.30;1.00;;;;;;21003364;28;20529;-39
2023/12/23 13:32:39;;;;;;;5.65;1.17;;;11.40;1.00;;;;;;21004899;28;20380;-39
2023/12/23 13:42:40;;;;;;;9.75;1.40;;;11.40;1.00;;;;;;20999377;28;20059;-40
2023/12/23 13:52:40;;;;;;;6.93;0.85;;;11.40;1.00;;;;;;21019002;28;20806;-40
2023/12/23 14:02:41;;;;;;;6.85;1.02;;;11.30;1.00;;;;;;21017117;28;20040;-40
2023/12/23 14:12:41;;;;;;;5.32;0.98;;;11.30;1.00;;;;;;20957868;28;20041;-40
2023/12/23 14:22:42;;;;;;;9.05;1.45;;;11.20;1.00;;;;;;20976144;28;20051;-40
2023/12/23 14:32:42;;;;;;;8.15;1.13;;;11.20;1.00;;;;;;20972085;28;20350;-40
2023/12/23 14:42:43;;;;;;;6.45;1.30;;;11.20;1.00;;;;;;20989794;28;20049;-40
2023/12/23 14:52:44;;;;;;;8.30;1.75;;;11.20;1.00;;;;;;21016880;28;20057;-40
2023/12/23 15:02:44;;;;;;;6.55;1.10;;;11.00;1.00;;;;;;21018202;28;20050;-39
2023/12/23 15:12:45;;;;;;;5.05;1.20;;;11.10;1.00;;;;;;20972497;28;20491;-40
2023/12/23 15:22:46;;;;;;;8.30;1.10;;;11.10;1.00;;;;;;21001363;28;20571;-39
2023/12/23 15:32:46;;;;;;;7.55;1.42;;;11.10;1.00;;;;;;20981416;28;20046;-40
2023/12/23 15:42:47;;;;;;;9.27;1.20;;;11.00;1.00;;;;;;21010047;28;20048;-40
2023/12/23 15:52:47;;;;;;;5.50;0.80;;;11.10;1.00;;;;;;21006939;28;20047;-40
2023/12/23 16:02:48;;;;;;;9.70;1.40;;;11.10;1.00;;;;;;21002414;28;20041;-40
2023/12/23 16:12:48;;;;;;;5.65;1.05;;;11.00;1.00;;;;;;21005698;28;20052;-40
2023/12/23 16:22:51;;;;;;;8.40;0.90;;;11.00;1.00;;;;;;21007701;28;20036;-40
2023/12/23 16:32:52;;;;;;;8.05;1.02;;;11.10;1.00;;;;;;20983515;28;20709;-39
2023/12/23 16:42:52;;;;;;;8.40;1.13;;;11.20;1.00;;;;;;20999703;28;20056;-40
2023/12/23 16:52:53;;;;;;;4.05;0.80;;;11.10;1.00;;;;;;21002192;28;20085;-39
2023/12/23 17:02:54;;;;;;;4.18;1.02;;;11.20;1.00;;;;;;21007525;28;20040;-40
2023/12/23 17:12:54;;;;;;;6.05;0.88;;;11.20;1.00;;;;;;21001097;28;20059;-40
2023/12/23 17:22:55;;;;;;;6.93;0.98;;;11.20;1.00;;;;;;21003513;28;20450;-40
2023/12/23 17:32:55;;;;;;;7.03;0.98;;;11.20;1.00;;;;;;21021059;28;20048;-39
2023/12/23 17:42:56;;;;;;;5.70;1.10;;;11.30;1.00;;;;;;21014114;28;20129;-39
2023/12/23 17:52:56;;;;;;;6.65;0.88;;;11.30;1.00;;;;;;21020580;28;20044;-39
2023/12/23 18:02:57;;;;;;;8.80;1.52;;;11.30;1.00;;;;;;21021088;28;20052;-40
2023/12/23 18:12:57;;;;;;;5.03;0.95;;;11.40;1.00;;;;;;21018404;28;20039;-39
2023/12/23 18:22:58;;;;;;;9.35;1.55;;;11.40;1.00;;;;;;21018974;28;20040;-39
2023/12/23 18:32:59;;;;;;;9.05;1.90;;;11.40;1.00;;;;;;21003557;28;20564;-39
2023/12/23 18:43:06;;;;;;;6.57;1.43;;;11.40;1.00;;;;;;21015095;28;20072;-39
2023/12/23 18:53:06;;;;;;;3.90;1.20;;;11.40;1.00;;;;;;21015465;28;20511;-40
2023/12/23 19:03:11;;;;;;;9.93;1.63;;;11.30;1.00;;;;;;21015715;28;20633;-39
2023/12/23 19:13:12;;;;;;;6.85;1.20;;;11.40;1.00;;;;;;21006848;28;20055;-39
2023/12/23 19:23:12;;;;;;;8.07;1.35;;;11.40;1.00;;;;;;21005510;28;20048;-39
2023/12/23 19:33:13;;;;;;;7.15;1.40;;;11.30;1.00;;;;;;21014382;28;20054;-39
2023/12/23 19:43:14;;;;;;;11.05;1.70;;;11.30;1.00;;;;;;21010368;28;20047;-39
2023/12/23 19:53:14;;;;;;;7.78;1.77;;;11.20;1.00;;;;;;21010796;28;20634;-39
2023/12/23 20:03:15;;;;;;;6.07;1.05;;;11.20;1.00;;;;;;21014000;28;20051;-39
2023/12/23 20:13:15;;;;;;;9.47;1.17;;;11.20;1.00;;;;;;21006216;28;20044;-40
2023/12/23 20:23:16;;;;;;;7.97;1.65;;;11.30;1.00;;;;;;21011171;28;20593;-39
2023/12/23 20:33:17;;;;;;;8.20;1.40;;;11.30;1.00;;;;;;21003678;28;20071;-39
2023/12/23 20:43:17;;;;;;;9.40;1.60;;;11.30;1.00;;;;;;20993001;28;20044;-39
2023/12/23 20:53:18;;;;;;;8.65;1.33;;;11.20;1.00;;;;;;21003359;28;20661;-39
2023/12/23 21:03:19;;;;;;;9.17;1.43;;;11.20;1.00;;;;;;21009349;28;20614;-39
2023/12/23 21:13:20;;;;;;;7.35;1.55;;;11.20;1.00;;;;;;21003402;28;20125;-39
2023/12/23 21:23:21;;;;;;;7.88;1.27;;;11.10;1.00;;;;;;21006909;28;20053;-39
2023/12/23 21:33:23;;;;;;;9.70;1.67;;;11.10;1.00;;;;;;20992996;28;20090;-39
2023/12/23 21:43:23;;;;;;;7.75;1.85;;;11.10;1.00;;;;;;21005764;28;25620;-39
2023/12/23 21:53:24;;;;;;;7.25;1.58;;;11.10;1.00;;;;;;21006548;28;20032;-39
2023/12/23 22:03:26;;;;;;;6.13;1.40;;;11.00;1.00;;;;;;21000648;28;20532;-40
2023/12/23 22:13:27;;;;;;;10.07;1.52;;;11.00;1.00;;;;;;21018007;28;20543;-40
2023/12/23 22:23:27;;;;;;;7.43;1.50;;;11.00;1.00;;;;;;21018063;28;20162;-40
2023/12/23 22:33:28;;;;;;;7.53;1.08;;;11.00;1.00;;;;;;21016154;28;20064;-39
2023/12/23 22:43:29;;;;;;;7.82;1.20;;;11.00;1.00;;;;;;21012867;28;20052;-39
2023/12/23 22:53:29;;;;;;;8.90;1.38;;;11.10;1.00;;;;;;21014259;28;20040;-40
2023/12/23 23:03:30;;;;;;;5.07;1.33;;;11.10;1.00;;;;;;21009361;28;20551;-40
2023/12/23 23:13:31;;;;;;;6.60;1.35;;;11.10;1.00;;;;;;21008044;28;20849;-39
2023/12/23 23:23:31;;;;;;;6.97;1.48;;;11.20;1.00;;;;;;21005002;28;20121;-39
2023/12/23 23:33:32;;;;;;;8.65;1.27;;;11.10;1.00;;;;;;21006870;28;20047;-39
2023/12/23 23:43:32;;;;;;;6.50;1.10;;;11.20;1.00;;;;;;21002745;28;20052;-39
2023/12/23 23:53:33;;;;;;;6.68;1.10;;;11.20;1.00;;;;;;21006299;28;21217;-41
